Weather at International Heli-Tours Heliport

Public forecast

Using degrees Fahrenheit for public forecast. Weather courtesy of forecast.io.

Closest aviation weather report (METAR) to International Heli-Tours Heliport

Closest report is Kissimmee Gateway Airport, 3.8 nm (7.0 km) SE. Retrieved 2022/01/27 07:27 UTC (28 minutes ago):

KISM 270727Z AUTO 02007KT 10SM FEW011 OVC032 16/14 A3009

Closest aviation forecast (TAF) to International Heli-Tours Heliport

Closest forecast is Kissimmee Gateway Airport, 3.8 nm (7.0 km) SE. Retrieved 2022/01/27 06:03 UTC (2 hours ago):

TAF KISM 270559Z 2706/2806 36006KT P6SM FEW015 OVC023 FM270900 35007KT 6SM BR OVC007 FM271300 36008KT P6SM BKN015 FM271800 01012G18KT P6SM SCT015 BKN025 FM280200 36009KT P6SM SCT025 BKN035